Columbus, OH

1:59 PM EST on January 27, 2015 (GMT -0500)
WX8Q Worthington Estates East | Change Station
CLOSE
Current Station
Personal Weather Station
Location: Worthington, OH
Elevation: 922 ft
Nearby Weather Stations

Elev 922 ft 40.10 °N, 83.01 °W | Updated 58 seconds ago

Partly Cloudy
Partly Cloudy
22.6 °F
Feels Like 23 °F
N
0.0
Wind Variable Wind from SW
Gusts 0.0 mph

Today
High -- | Low -- °F
--% Chance of Precip.
Yesterday
High -- | Low -- °F
Precip. -- in
7:45 AM 5:44 PM
First Quarter, 56% visible
Pressure 30.10 in
Visibility 10.0 miles
Clouds Few 2000 ft
Windchill 23 °F
Dew Point 10 °F
Humidity 59%
Rainfall 0.00 in
Snow Depth Not available.
UV 0.0 out of 12
Pollen .10 out of 12
Air Quality Not available.
Flu Activity Not available.
METAR KOSU 271853Z 35009KT 10SM FEW020 M07/M11 A3005 RMK AO2 UPE03 SLP193 P0000 T10671111

More Conditions Fewer Conditions

Pressure 30.10 in
Visibility 10.0 miles
Clouds Few 2000 ft
Windchill 23 °F
Dew Point 10 °F
Humidity 59%
Rainfall 0.00 in
Snow Depth Not available.
UV 0.0 out of 12
Pollen .10 out of 12
Air Quality Not available.
Flu Activity Not available.
METAR KOSU 271853Z 35009KT 10SM FEW020 M07/M11 A3005 RMK AO2 UPE03 SLP193 P0000 T10671111

More Conditions Fewer Conditions

10-Day Weather Forecast

Almanac

Astronomy

Jan. 27, 2015 Rise Set
Actual Time
Civil Twilight
Nautical Twilight
Astronomical Twilight
Moon
Length of Visible Light
Length of Day
Tomorrow will be .
, % of the Moon is Illuminated

Today's Extremes

State Highs State Lows

Community

WunderPhotos

Upload Photos

1,790,776 photos uploaded!

WunderBlogs® & News

Nearby

Air Quality

  Air Quality AQ Index Pollutant
Not available.

Snow Depth

Station Depth Elevation

Earthquake Activity

City Distance Mag. Time & Date
Minimum magnitude displayed is 2.5.

Coastal Water Temperatures

Place Temperature

Nearby Weather Stations